createdAt,value
2019-02-17T00:00:34.478Z,6.46
2019-02-17T00:01:34.506Z,6.57
2019-02-17T00:02:34.537Z,6.44
2019-02-17T00:03:34.551Z,6.46
2019-02-17T00:04:34.579Z,6.46
2019-02-17T00:05:34.601Z,6.44
2019-02-17T00:06:34.628Z,6.43
2019-02-17T00:07:34.649Z,6.46
2019-02-17T00:08:34.678Z,6.46
2019-02-17T00:09:34.701Z,6.37
2019-02-17T00:10:34.723Z,6.43
2019-02-17T00:11:34.746Z,6.44
2019-02-17T00:12:34.831Z,6.40
2019-02-17T00:13:34.796Z,6.39
2019-02-17T00:14:34.822Z,6.46
2019-02-17T00:15:34.855Z,6.37
2019-02-17T00:16:34.877Z,6.42
2019-02-17T00:17:34.901Z,6.42
2019-02-17T00:18:34.921Z,6.33
2019-02-17T00:19:34.950Z,6.36
2019-02-17T00:20:34.974Z,6.29
2019-02-17T00:21:35.001Z,6.28
2019-02-17T00:22:35.016Z,6.31
2019-02-17T00:23:35.046Z,6.36
2019-02-17T00:24:35.065Z,6.25
2019-02-17T00:25:35.106Z,6.36
2019-02-17T00:26:35.121Z,6.39
2019-02-17T00:27:35.141Z,6.36
2019-02-17T00:28:35.170Z,6.29
2019-02-17T00:29:35.189Z,6.34
2019-02-17T00:30:35.217Z,6.31
2019-02-17T00:31:35.241Z,6.37
2019-02-17T00:32:35.262Z,6.33
2019-02-17T00:33:35.285Z,6.28
2019-02-17T00:34:35.310Z,6.29
2019-02-17T00:35:35.336Z,6.33
2019-02-17T00:36:35.365Z,6.21
2019-02-17T00:37:35.383Z,6.34
2019-02-17T00:38:35.407Z,6.28
2019-02-17T00:39:35.433Z,6.20
2019-02-17T00:40:35.461Z,6.24
2019-02-17T00:41:35.491Z,6.24
2019-02-17T00:42:35.511Z,6.14
2019-02-17T00:43:35.535Z,6.20
2019-02-17T00:44:35.555Z,6.10
2019-02-17T00:45:35.578Z,6.07
2019-02-17T00:46:35.612Z,6.25
2019-02-17T00:47:35.626Z,6.25
2019-02-17T00:48:35.654Z,6.13
2019-02-17T00:49:35.676Z,6.10
2019-02-17T00:50:35.700Z,6.09
2019-02-17T00:51:35.725Z,6.10
2019-02-17T00:52:35.758Z,6.17
2019-02-17T00:53:35.786Z,6.15
2019-02-17T00:54:35.802Z,6.13
2019-02-17T00:55:35.823Z,6.10
2019-02-17T00:56:35.856Z,6.09
2019-02-17T00:57:35.879Z,6.03
2019-02-17T00:58:35.907Z,6.13
2019-02-17T00:59:35.922Z,6.05
2019-02-17T01:00:35.953Z,6.03
2019-02-17T01:01:35.973Z,6.03
2019-02-17T01:02:36.006Z,5.99
2019-02-17T01:03:36.021Z,5.98
2019-02-17T01:04:36.044Z,5.89
2019-02-17T01:05:36.070Z,5.96
2019-02-17T01:06:36.104Z,5.88
2019-02-17T01:07:36.120Z,5.91
2019-02-17T01:08:36.143Z,5.85
2019-02-17T01:09:36.169Z,5.92
2019-02-17T01:10:36.194Z,5.99
2019-02-17T01:11:36.216Z,5.88
2019-02-17T01:12:36.247Z,5.89
2019-02-17T01:13:36.269Z,5.87
2019-02-17T01:14:36.291Z,5.92
2019-02-17T01:15:36.315Z,5.88
2019-02-17T01:16:36.338Z,5.85
2019-02-17T01:17:36.364Z,5.87
2019-02-17T01:18:36.393Z,5.89
2019-02-17T01:19:36.409Z,5.75
2019-02-17T01:20:36.443Z,5.75
2019-02-17T01:21:36.460Z,5.80
2019-02-17T01:22:36.483Z,5.81
2019-02-17T01:23:36.506Z,5.80
2019-02-17T01:24:36.531Z,5.72
2019-02-17T01:25:36.554Z,5.78
2019-02-17T01:26:36.579Z,5.78
2019-02-17T01:27:36.601Z,5.66
2019-02-17T01:28:36.630Z,5.75
2019-02-17T01:29:36.657Z,5.77
2019-02-17T01:30:36.686Z,5.78
2019-02-17T01:31:36.706Z,5.70
2019-02-17T01:32:36.723Z,5.66
2019-02-17T01:33:36.756Z,5.78
2019-02-17T01:34:36.781Z,5.84
2019-02-17T01:35:36.795Z,5.70
2019-02-17T01:36:36.821Z,5.73
2019-02-17T01:37:36.843Z,5.82
2019-02-17T01:38:37.419Z,5.78
2019-02-17T01:39:36.893Z,5.73
2019-02-17T01:40:36.919Z,5.81
2019-02-17T01:41:36.944Z,5.81
2019-02-17T01:42:36.965Z,5.82
2019-02-17T01:43:36.990Z,5.80
2019-02-17T01:44:37.015Z,5.82
2019-02-17T01:45:37.037Z,5.81
2019-02-17T01:46:38.516Z,5.75
2019-02-17T01:47:37.088Z,5.80
2019-02-17T01:48:37.112Z,5.73
2019-02-17T01:49:37.136Z,5.66
2019-02-17T01:50:37.166Z,5.70
2019-02-17T01:51:37.183Z,5.75
2019-02-17T01:52:37.208Z,5.73
2019-02-17T01:53:37.234Z,5.70
2019-02-17T01:54:37.256Z,5.60
2019-02-17T01:55:37.279Z,5.62
2019-02-17T01:56:37.302Z,5.55
2019-02-17T01:57:37.328Z,5.54
2019-02-17T01:58:37.359Z,5.62
2019-02-17T01:59:37.379Z,5.66
2019-02-17T02:00:37.397Z,5.59
2019-02-17T02:01:37.420Z,5.63
2019-02-17T02:02:37.446Z,5.54
2019-02-17T02:03:37.477Z,5.57
2019-02-17T02:04:37.494Z,5.49
2019-02-17T02:05:37.527Z,5.48
2019-02-17T02:06:37.542Z,5.46
2019-02-17T02:07:37.573Z,5.48
2019-02-17T02:08:37.593Z,5.45
2019-02-17T02:09:37.614Z,5.49
2019-02-17T02:10:37.636Z,5.46
2019-02-17T02:11:37.666Z,5.41
2019-02-17T02:12:37.682Z,5.41
2019-02-17T02:13:37.708Z,5.45
2019-02-17T02:14:37.735Z,5.44
2019-02-17T02:15:37.754Z,5.44
2019-02-17T02:16:37.779Z,5.42
2019-02-17T02:17:37.812Z,5.44
2019-02-17T02:18:37.831Z,5.41
2019-02-17T02:19:37.850Z,5.45
2019-02-17T02:20:37.882Z,5.46
2019-02-17T02:21:37.901Z,5.44
2019-02-17T02:22:37.925Z,5.44
2019-02-17T02:23:37.951Z,5.44
2019-02-17T02:24:37.970Z,5.46
2019-02-17T02:25:37.995Z,5.44
2019-02-17T02:26:38.020Z,5.44
2019-02-17T02:27:38.041Z,5.45
2019-02-17T02:28:38.066Z,5.44
2019-02-17T02:29:41.047Z,5.44
2019-02-17T02:30:38.114Z,5.44
2019-02-17T02:31:38.137Z,5.44
2019-02-17T02:32:38.161Z,5.44
2019-02-17T02:33:38.187Z,5.41
2019-02-17T02:34:38.209Z,5.44
2019-02-17T02:35:38.236Z,5.39
2019-02-17T02:36:38.262Z,5.36
2019-02-17T02:37:38.292Z,5.39
2019-02-17T02:38:38.306Z,5.36
2019-02-17T02:39:38.335Z,5.31
2019-02-17T02:40:38.355Z,5.42
2019-02-17T02:41:38.383Z,5.42
2019-02-17T02:42:38.410Z,5.41
2019-02-17T02:43:38.424Z,5.39
2019-02-17T02:44:38.459Z,5.41
2019-02-17T02:45:38.486Z,5.41
2019-02-17T02:46:38.501Z,5.31
2019-02-17T02:47:38.522Z,5.41
2019-02-17T02:48:38.554Z,5.45
2019-02-17T02:49:38.568Z,5.37
2019-02-17T02:50:38.591Z,5.34
2019-02-17T02:51:38.625Z,5.34
2019-02-17T02:52:38.653Z,5.31
2019-02-17T02:53:38.669Z,5.34
2019-02-17T02:54:38.834Z,5.42
2019-02-17T02:55:38.714Z,5.42
2019-02-17T02:56:38.754Z,5.45
2019-02-17T02:57:38.760Z,5.41
2019-02-17T02:58:38.795Z,5.41
2019-02-17T02:59:38.807Z,5.34
2019-02-17T03:00:38.834Z,5.39
2019-02-17T03:01:38.856Z,5.39
2019-02-17T03:02:38.888Z,5.33
2019-02-17T03:03:38.912Z,5.41
2019-02-17T03:04:38.927Z,5.37
2019-02-17T03:05:38.951Z,5.39
2019-02-17T03:06:38.978Z,5.36
2019-02-17T03:07:39.005Z,5.45
2019-02-17T03:08:39.024Z,5.34
2019-02-17T03:09:39.053Z,5.28
2019-02-17T03:10:39.071Z,5.31
2019-02-17T03:11:39.096Z,5.28
2019-02-17T03:12:39.205Z,5.24
2019-02-17T03:13:39.696Z,5.24
2019-02-17T03:14:39.170Z,5.26
2019-02-17T03:15:39.195Z,5.20
2019-02-17T03:16:39.222Z,5.16
2019-02-17T03:17:39.241Z,5.09
2019-02-17T03:18:39.262Z,5.16
2019-02-17T03:19:39.347Z,5.16
2019-02-17T03:20:39.308Z,5.12
2019-02-17T03:21:39.344Z,5.13
2019-02-17T03:22:39.372Z,5.12
2019-02-17T03:23:39.386Z,5.16
2019-02-17T03:24:39.408Z,5.24
2019-02-17T03:25:39.429Z,5.26
2019-02-17T03:26:39.455Z,5.21
2019-02-17T03:27:39.484Z,5.26
2019-02-17T03:28:39.499Z,5.20
2019-02-17T03:29:39.524Z,5.23
2019-02-17T03:30:39.556Z,5.16
2019-02-17T03:31:39.580Z,5.26
2019-02-17T03:32:39.605Z,5.16
2019-02-17T03:33:39.624Z,5.20
2019-02-17T03:34:39.645Z,5.21
2019-02-17T03:35:39.667Z,5.24
2019-02-17T03:36:39.693Z,5.21
2019-02-17T03:37:39.717Z,5.20
2019-02-17T03:38:39.738Z,5.13
2019-02-17T03:39:39.764Z,5.09
2019-02-17T03:40:39.794Z,5.05
2019-02-17T03:41:39.813Z,5.10
2019-02-17T03:42:39.836Z,5.09
2019-02-17T03:43:39.865Z,5.15
2019-02-17T03:44:39.882Z,5.12
2019-02-17T03:45:39.906Z,5.10
2019-02-17T03:46:39.939Z,5.12
2019-02-17T03:47:39.961Z,5.10
2019-02-17T03:48:39.981Z,5.13
2019-02-17T03:49:40.008Z,5.12
2019-02-17T03:50:40.026Z,5.13
2019-02-17T03:51:40.049Z,5.08
2019-02-17T03:52:40.086Z,5.12
2019-02-17T03:53:40.107Z,5.15
2019-02-17T03:54:40.130Z,5.13
2019-02-17T03:55:40.151Z,5.16
2019-02-17T03:56:40.174Z,5.03
2019-02-17T03:57:40.192Z,5.05
2019-02-17T03:58:40.225Z,4.95
2019-02-17T03:59:40.244Z,5.10
2019-02-17T04:00:40.290Z,5.02
2019-02-17T04:01:40.290Z,5.13
2019-02-17T04:02:40.324Z,4.92
2019-02-17T04:03:40.337Z,4.94
2019-02-17T04:04:40.362Z,4.95
2019-02-17T04:05:40.385Z,4.98
2019-02-17T04:06:40.412Z,5.05
2019-02-17T04:07:40.443Z,4.92
2019-02-17T04:08:40.461Z,4.91
2019-02-17T04:09:40.477Z,4.92
2019-02-17T04:10:40.510Z,4.90
2019-02-17T04:11:40.526Z,4.92
2019-02-17T04:12:40.552Z,4.85
2019-02-17T04:13:40.574Z,4.85
2019-02-17T04:14:40.596Z,4.84
2019-02-17T04:15:40.627Z,4.90
2019-02-17T04:16:40.645Z,4.83
2019-02-17T04:17:40.674Z,4.84
2019-02-17T04:18:40.692Z,4.79
2019-02-17T04:19:40.713Z,4.83
2019-02-17T04:20:40.741Z,4.78
2019-02-17T04:21:40.761Z,4.75
2019-02-17T04:22:40.787Z,4.78
2019-02-17T04:23:40.809Z,4.79
2019-02-17T04:24:40.832Z,4.71
2019-02-17T04:25:40.858Z,4.75
2019-02-17T04:26:40.896Z,4.74
2019-02-17T04:27:40.903Z,4.71
2019-02-17T04:28:40.928Z,4.74
2019-02-17T04:29:40.951Z,4.75
2019-02-17T04:30:40.975Z,4.68
2019-02-17T04:31:40.999Z,4.72
2019-02-17T04:32:41.021Z,4.64
2019-02-17T04:33:41.046Z,4.74
2019-02-17T04:34:41.079Z,4.56
2019-02-17T04:35:41.091Z,4.64
2019-02-17T04:36:41.117Z,4.58
2019-02-17T04:37:41.138Z,4.57
2019-02-17T04:38:41.162Z,4.60
2019-02-17T04:39:41.191Z,4.58
2019-02-17T04:40:41.207Z,4.57
2019-02-17T04:41:41.233Z,4.56
2019-02-17T04:42:41.255Z,4.51
2019-02-17T04:43:41.279Z,4.53
2019-02-17T04:44:41.299Z,4.48
2019-02-17T04:45:41.324Z,4.47
2019-02-17T04:46:41.346Z,4.53
2019-02-17T04:47:41.383Z,4.51
2019-02-17T04:48:41.398Z,4.51
2019-02-17T04:49:41.417Z,4.53
2019-02-17T04:50:41.441Z,4.53
2019-02-17T04:51:41.471Z,4.53
2019-02-17T04:52:41.486Z,4.51
2019-02-17T04:53:41.511Z,4.54
2019-02-17T04:54:41.533Z,4.48
2019-02-17T04:55:41.556Z,4.50
2019-02-17T04:56:41.585Z,4.50
2019-02-17T04:57:41.604Z,4.51
2019-02-17T04:58:41.630Z,4.48
2019-02-17T04:59:41.653Z,4.48
2019-02-17T05:00:41.677Z,4.56
2019-02-17T05:01:41.731Z,4.50
2019-02-17T05:02:41.722Z,4.50
2019-02-17T05:03:41.745Z,4.53
2019-02-17T05:04:41.772Z,4.54
2019-02-17T05:05:41.792Z,4.47
2019-02-17T05:06:41.816Z,4.48
2019-02-17T05:07:41.845Z,4.51
2019-02-17T05:08:41.865Z,4.44
2019-02-17T05:09:41.890Z,4.39
2019-02-17T05:10:41.975Z,4.40
2019-02-17T05:11:41.934Z,4.46
2019-02-17T05:12:41.956Z,4.46
2019-02-17T05:13:41.985Z,4.48
2019-02-17T05:14:42.003Z,4.48
2019-02-17T05:15:42.027Z,4.46
2019-02-17T05:16:42.049Z,4.42
2019-02-17T05:17:42.083Z,4.46
2019-02-17T05:18:42.103Z,4.36
2019-02-17T05:19:42.118Z,4.53
2019-02-17T05:20:42.144Z,4.53
2019-02-17T05:21:42.171Z,4.54
2019-02-17T05:22:42.193Z,4.53
2019-02-17T05:23:42.216Z,4.51
2019-02-17T05:24:42.239Z,4.51
2019-02-17T05:25:42.259Z,4.48
2019-02-17T05:26:42.286Z,4.51
2019-02-17T05:27:42.308Z,4.53
2019-02-17T05:28:42.332Z,4.51
2019-02-17T05:29:42.352Z,4.51
2019-02-17T05:30:52.107Z,4.53
2019-02-17T05:31:42.402Z,4.50
2019-02-17T05:32:42.432Z,4.51
2019-02-17T05:33:42.448Z,4.50
2019-02-17T05:34:42.473Z,4.48
2019-02-17T05:35:42.496Z,4.54
2019-02-17T05:36:42.527Z,4.42
2019-02-17T05:37:42.541Z,4.42
2019-02-17T05:38:42.568Z,4.44
2019-02-17T05:39:42.603Z,4.44
2019-02-17T05:40:42.613Z,4.42
2019-02-17T05:41:42.638Z,4.42
2019-02-17T05:42:42.665Z,4.36
2019-02-17T05:43:42.733Z,4.39
2019-02-17T05:44:42.707Z,4.36
2019-02-17T05:45:42.737Z,4.33
2019-02-17T05:46:42.752Z,4.35
2019-02-17T05:47:42.775Z,4.28
2019-02-17T05:48:42.807Z,4.33
2019-02-17T05:49:43.032Z,4.30
2019-02-17T05:50:42.844Z,4.33
2019-02-17T05:51:42.874Z,4.36
2019-02-17T05:52:42.900Z,4.30
2019-02-17T05:53:42.915Z,4.39
2019-02-17T05:54:42.947Z,4.28
2019-02-17T05:55:42.962Z,4.28
2019-02-17T05:56:42.984Z,4.26
2019-02-17T05:57:43.012Z,4.38
2019-02-17T05:58:43.033Z,4.26
2019-02-17T05:59:43.060Z,4.28
2019-02-17T06:00:43.080Z,4.29
2019-02-17T06:01:43.110Z,4.29
2019-02-17T06:02:43.136Z,4.29
2019-02-17T06:03:43.157Z,4.36
2019-02-17T06:04:43.174Z,4.26
2019-02-17T06:05:43.196Z,4.26
2019-02-17T06:06:43.219Z,4.30
2019-02-17T06:07:43.243Z,4.24
2019-02-17T06:08:43.271Z,4.26
2019-02-17T06:09:43.294Z,4.24
2019-02-17T06:10:43.321Z,4.30
2019-02-17T06:11:43.339Z,4.20
2019-02-17T06:12:43.364Z,4.21
2019-02-17T06:13:43.384Z,4.17
2019-02-17T06:14:43.412Z,4.18
2019-02-17T06:15:43.435Z,4.18
2019-02-17T06:16:43.453Z,4.15
2019-02-17T06:17:43.475Z,4.08
2019-02-17T06:18:43.498Z,4.14
2019-02-17T06:19:43.524Z,4.11
2019-02-17T06:20:43.547Z,4.10
2019-02-17T06:21:43.576Z,4.10
2019-02-17T06:22:43.591Z,4.14
2019-02-17T06:23:43.614Z,4.11
2019-02-17T06:24:43.649Z,4.17
2019-02-17T06:25:43.662Z,4.10
2019-02-17T06:26:43.685Z,4.17
2019-02-17T06:27:43.706Z,4.18
2019-02-17T06:28:43.729Z,4.21
2019-02-17T06:29:43.754Z,4.12
2019-02-17T06:30:43.778Z,4.21
2019-02-17T06:31:43.807Z,4.14
2019-02-17T06:32:43.830Z,4.11
2019-02-17T06:33:43.856Z,4.15
2019-02-17T06:34:43.871Z,4.14
2019-02-17T06:35:43.893Z,4.12
2019-02-17T06:36:43.916Z,4.15
2019-02-17T06:37:43.941Z,4.00
2019-02-17T06:38:43.961Z,4.04
2019-02-17T06:39:43.989Z,4.14
2019-02-17T06:40:44.009Z,4.03
2019-02-17T06:41:44.030Z,4.04
2019-02-17T06:42:44.062Z,4.10
2019-02-17T06:43:44.076Z,4.12
2019-02-17T06:44:44.099Z,4.12
2019-02-17T06:45:44.123Z,4.11
2019-02-17T06:46:44.231Z,4.04
2019-02-17T06:47:44.168Z,4.10
2019-02-17T06:48:44.200Z,4.15
2019-02-17T06:49:44.220Z,4.18
2019-02-17T06:50:44.242Z,4.14
2019-02-17T06:51:44.262Z,4.15
2019-02-17T06:52:44.286Z,4.18
2019-02-17T06:53:44.309Z,4.17
2019-02-17T06:54:44.337Z,4.21
2019-02-17T06:55:44.354Z,4.21
2019-02-17T06:56:44.380Z,4.22
2019-02-17T06:57:44.412Z,4.22
2019-02-17T06:58:44.448Z,4.30
2019-02-17T06:59:44.446Z,4.29
2019-02-17T07:00:44.470Z,4.24
2019-02-17T07:01:44.495Z,4.28
2019-02-17T07:02:44.520Z,4.38
2019-02-17T07:03:44.556Z,4.33
2019-02-17T07:04:44.565Z,4.39
2019-02-17T07:05:44.603Z,4.32
2019-02-17T07:06:44.629Z,4.35
2019-02-17T07:07:44.713Z,4.39
2019-02-17T07:08:44.680Z,4.33
2019-02-17T07:09:44.682Z,4.46
2019-02-17T07:10:44.705Z,4.44
2019-02-17T07:11:44.728Z,4.44
2019-02-17T07:12:44.755Z,4.40
2019-02-17T07:13:44.780Z,4.44
2019-02-17T07:14:44.797Z,4.51
2019-02-17T07:15:44.830Z,4.46
2019-02-17T07:16:44.846Z,4.47
2019-02-17T07:17:44.875Z,4.53
2019-02-17T07:18:44.894Z,4.48
2019-02-17T07:19:44.922Z,4.53
2019-02-17T07:20:44.938Z,4.60
2019-02-17T07:21:44.961Z,4.58
2019-02-17T07:22:44.987Z,4.72
2019-02-17T07:23:45.012Z,4.58
2019-02-17T07:24:45.037Z,4.65
2019-02-17T07:25:45.080Z,4.75
2019-02-17T07:26:45.088Z,4.72
2019-02-17T07:27:45.101Z,4.76
2019-02-17T07:28:45.131Z,4.76
2019-02-17T07:29:45.149Z,4.87
2019-02-17T07:30:45.173Z,4.83
2019-02-17T07:31:45.198Z,4.90
2019-02-17T07:32:45.220Z,4.98
2019-02-17T07:33:45.260Z,4.92
2019-02-17T07:34:45.275Z,5.05
2019-02-17T07:35:45.296Z,5.03
2019-02-17T07:36:45.316Z,5.13
2019-02-17T07:37:45.355Z,5.12
2019-02-17T07:38:45.370Z,5.13
2019-02-17T07:39:45.386Z,5.12
2019-02-17T07:40:45.412Z,5.21
2019-02-17T07:41:45.435Z,5.12
2019-02-17T07:42:45.466Z,5.13
2019-02-17T07:43:45.480Z,5.12
2019-02-17T07:44:45.504Z,5.20
2019-02-17T07:45:45.528Z,5.28
2019-02-17T07:46:45.554Z,5.27
2019-02-17T07:47:45.581Z,5.33
2019-02-17T07:48:45.601Z,5.37
2019-02-17T07:49:45.622Z,5.30
2019-02-17T07:50:45.647Z,5.20
2019-02-17T07:51:45.678Z,5.26
2019-02-17T07:52:45.697Z,5.08
2019-02-17T07:53:45.730Z,5.16
2019-02-17T07:54:45.744Z,5.15
2019-02-17T07:55:45.767Z,5.27
2019-02-17T07:56:45.798Z,5.30
2019-02-17T07:57:45.814Z,5.45
2019-02-17T07:58:45.846Z,5.54
2019-02-17T07:59:45.869Z,5.62
2019-02-17T08:00:45.885Z,5.63
2019-02-17T08:01:45.915Z,5.60
2019-02-17T08:02:45.933Z,5.57
2019-02-17T08:03:45.957Z,5.67
2019-02-17T08:04:45.981Z,5.49
2019-02-17T08:05:46.012Z,5.48
2019-02-17T08:06:46.036Z,5.49
2019-02-17T08:07:46.060Z,5.39
2019-02-17T08:08:46.077Z,5.30
2019-02-17T08:09:46.111Z,5.30
2019-02-17T08:10:46.132Z,5.36
2019-02-17T08:11:46.151Z,5.36
2019-02-17T08:12:46.230Z,5.45
2019-02-17T08:13:46.202Z,5.44
2019-02-17T08:14:46.229Z,5.45
2019-02-17T08:15:46.244Z,5.44
2019-02-17T08:16:46.270Z,5.46
2019-02-17T08:17:46.292Z,5.45
2019-02-17T08:18:46.317Z,5.48
2019-02-17T08:19:46.690Z,5.45
2019-02-17T08:20:46.367Z,5.60
2019-02-17T08:21:46.391Z,5.55
2019-02-17T08:22:46.713Z,5.52
2019-02-17T08:23:46.437Z,5.59
2019-02-17T08:24:46.460Z,5.57
2019-02-17T08:25:46.736Z,5.60
2019-02-17T08:26:46.718Z,5.70
2019-02-17T08:27:46.684Z,5.81
2019-02-17T08:28:46.709Z,5.87
2019-02-17T08:29:46.681Z,5.82
2019-02-17T08:30:46.619Z,5.99
2019-02-17T08:31:55.211Z,6.06
2019-02-17T08:32:46.667Z,5.99
2019-02-17T08:33:46.685Z,6.13
2019-02-17T08:34:47.022Z,6.18
2019-02-17T08:35:46.732Z,6.14
2019-02-17T08:36:46.755Z,6.20
2019-02-17T08:37:46.785Z,6.26
2019-02-17T08:38:47.010Z,6.34
2019-02-17T08:39:46.821Z,6.31
2019-02-17T08:40:46.847Z,6.43
2019-02-17T08:41:47.039Z,6.42
2019-02-17T08:42:47.036Z,6.42
2019-02-17T08:43:47.005Z,6.43
2019-02-17T08:44:46.949Z,6.54
2019-02-17T08:45:47.027Z,6.58
2019-02-17T08:46:47.087Z,6.54
2019-02-17T08:47:47.015Z,6.58
2019-02-17T08:48:47.038Z,6.61
2019-02-17T08:49:47.064Z,6.62
2019-02-17T08:50:47.089Z,6.70
2019-02-17T08:51:47.112Z,6.79
2019-02-17T08:52:47.137Z,6.70
2019-02-17T08:53:47.168Z,6.83
2019-02-17T08:54:47.184Z,6.91
2019-02-17T08:55:47.210Z,7.00
2019-02-17T08:56:47.233Z,6.98
2019-02-17T08:57:47.260Z,6.98
2019-02-17T08:58:47.333Z,7.03
2019-02-17T08:59:47.307Z,7.16
2019-02-17T09:00:47.331Z,7.19
2019-02-17T09:01:47.356Z,7.18
2019-02-17T09:02:47.381Z,7.45
2019-02-17T09:03:47.414Z,7.61
2019-02-17T09:04:47.432Z,8.24
2019-02-17T09:05:47.453Z,8.83
2019-02-17T09:06:47.482Z,9.72
2019-02-17T09:07:47.500Z,10.20
2019-02-17T09:08:47.527Z,11.02
2019-02-17T09:09:47.552Z,11.42
2019-02-17T09:10:47.587Z,11.73
2019-02-17T09:11:47.602Z,12.13
2019-02-17T09:12:47.641Z,12.45
2019-02-17T09:13:47.655Z,12.76
2019-02-17T09:14:49.097Z,12.62
2019-02-17T09:15:47.710Z,12.94
2019-02-17T09:16:48.002Z,13.17
2019-02-17T09:17:48.022Z,13.44
2019-02-17T09:18:48.009Z,13.36
2019-02-17T09:19:48.000Z,13.70
2019-02-17T09:20:48.001Z,13.91
2019-02-17T09:21:47.876Z,14.20
2019-02-17T09:22:48.090Z,14.05
2019-02-17T09:23:47.925Z,13.88
2019-02-17T09:24:48.026Z,14.16
2019-02-17T09:25:47.990Z,14.41
2019-02-17T09:26:48.021Z,14.89
2019-02-17T09:27:48.042Z,14.80
2019-02-17T09:28:48.146Z,14.95
2019-02-17T09:29:48.108Z,15.12
2019-02-17T09:30:48.130Z,15.41
2019-02-17T09:31:48.161Z,15.01
2019-02-17T09:32:48.191Z,14.95
2019-02-17T09:33:48.223Z,14.93
2019-02-17T09:34:48.253Z,15.25
2019-02-17T09:35:48.290Z,15.47
2019-02-17T09:36:48.310Z,15.49
2019-02-17T09:37:48.343Z,15.59
2019-02-17T09:38:48.374Z,15.31
2019-02-17T09:39:48.404Z,15.13
2019-02-17T09:40:48.433Z,15.04
2019-02-17T09:41:48.463Z,15.05
2019-02-17T09:42:48.499Z,15.30
2019-02-17T09:43:48.526Z,15.19
2019-02-17T09:44:48.558Z,15.16
2019-02-17T09:45:48.590Z,15.04
2019-02-17T09:46:48.622Z,15.16
2019-02-17T09:47:48.656Z,14.95
2019-02-17T09:48:48.685Z,14.80
2019-02-17T09:49:48.717Z,14.87
2019-02-17T09:50:48.747Z,14.74
2019-02-17T09:51:48.781Z,14.80
2019-02-17T09:52:48.813Z,15.04
2019-02-17T09:53:48.843Z,15.25
2019-02-17T09:54:48.883Z,14.98
2019-02-17T09:55:48.910Z,15.00
2019-02-17T09:56:48.938Z,14.97
2019-02-17T09:57:48.980Z,15.07
2019-02-17T09:58:49.003Z,15.13
2019-02-17T09:59:49.036Z,15.20
2019-02-17T10:00:49.071Z,15.30
2019-02-17T10:01:49.101Z,15.49
2019-02-17T10:02:49.131Z,15.56
2019-02-17T10:03:49.169Z,15.73
2019-02-17T10:04:49.200Z,16.08
2019-02-17T10:05:49.233Z,16.00
2019-02-17T10:06:49.263Z,16.32
2019-02-17T10:07:51.227Z,16.29
2019-02-17T10:08:49.326Z,16.51
2019-02-17T10:09:49.355Z,16.73
2019-02-17T10:10:49.395Z,17.21
2019-02-17T10:11:49.420Z,17.47
2019-02-17T10:12:49.455Z,17.94
2019-02-17T10:13:49.494Z,17.90
2019-02-17T10:14:49.521Z,17.77
2019-02-17T10:15:49.553Z,18.32
2019-02-17T10:16:49.586Z,18.38
2019-02-17T10:17:49.620Z,18.53
2019-02-17T10:18:49.650Z,18.56
2019-02-17T10:19:49.689Z,18.72
2019-02-17T10:20:49.717Z,18.66
2019-02-17T10:21:49.756Z,18.35
2019-02-17T10:22:49.785Z,18.87
2019-02-17T10:23:49.822Z,18.86
2019-02-17T10:24:49.853Z,18.74
2019-02-17T10:25:49.886Z,19.17
2019-02-17T10:26:49.923Z,19.28
2019-02-17T10:27:49.956Z,19.42
2019-02-17T10:28:49.990Z,19.00
2019-02-17T10:29:50.025Z,19.30
2019-02-17T10:30:50.061Z,19.09
2019-02-17T10:31:50.093Z,19.63
2019-02-17T10:32:50.137Z,19.53
2019-02-17T10:33:50.166Z,19.12
2019-02-17T10:34:50.198Z,18.87
2019-02-17T10:35:50.235Z,19.19
2019-02-17T10:36:50.269Z,19.93
2019-02-17T10:37:50.311Z,20.26
2019-02-17T10:38:50.551Z,20.41
2019-02-17T10:39:50.544Z,20.42
2019-02-17T10:40:50.412Z,19.16
2019-02-17T10:41:50.457Z,18.69
2019-02-17T10:42:53.106Z,18.35
2019-02-17T10:43:50.529Z,18.57
2019-02-17T10:44:50.562Z,18.97
2019-02-17T10:45:50.594Z,18.38
2019-02-17T10:46:50.629Z,18.82
2019-02-17T10:47:50.667Z,18.68
2019-02-17T10:48:50.703Z,18.86
2019-02-17T10:49:50.746Z,18.90
2019-02-17T10:50:50.774Z,18.99
2019-02-17T10:51:50.810Z,19.20
2019-02-17T10:52:50.848Z,19.13
2019-02-17T10:53:50.883Z,19.61
2019-02-17T10:54:50.919Z,20.15
2019-02-17T10:55:50.964Z,20.08
2019-02-17T10:56:50.993Z,20.10
2019-02-17T10:57:51.381Z,19.72
2019-02-17T10:58:51.065Z,19.89
2019-02-17T10:59:51.106Z,19.89
2019-02-17T11:00:51.139Z,19.83
2019-02-17T11:01:51.175Z,20.10
2019-02-17T11:02:51.210Z,20.29
2019-02-17T11:03:51.249Z,20.72
2019-02-17T11:04:51.284Z,21.08
2019-02-17T11:05:51.321Z,21.36
2019-02-17T11:06:51.358Z,21.51
2019-02-17T11:07:51.394Z,21.83
2019-02-17T11:08:51.428Z,21.52
2019-02-17T11:09:51.464Z,21.49
2019-02-17T11:10:51.503Z,21.13
2019-02-17T11:11:51.539Z,20.60
2019-02-17T11:12:51.576Z,20.42
2019-02-17T11:13:51.613Z,20.32
2019-02-17T11:14:51.651Z,20.51
2019-02-17T11:15:51.686Z,20.81
2019-02-17T11:16:51.730Z,21.21
2019-02-17T11:17:51.760Z,21.12
2019-02-17T11:18:52.004Z,21.00
2019-02-17T11:19:51.832Z,21.21
2019-02-17T11:20:51.868Z,20.88
2019-02-17T11:21:51.906Z,21.03
2019-02-17T11:22:51.942Z,20.83
2019-02-17T11:23:51.981Z,21.01
2019-02-17T11:24:52.015Z,21.59
2019-02-17T11:25:52.056Z,21.12
2019-02-17T11:26:52.094Z,20.93
2019-02-17T11:27:52.129Z,21.23
2019-02-17T11:28:52.168Z,21.61
2019-02-17T11:29:52.202Z,22.07
2019-02-17T11:30:52.237Z,22.00
2019-02-17T11:31:52.282Z,21.82
2019-02-17T11:32:57.947Z,21.80
2019-02-17T11:33:52.351Z,20.98
2019-02-17T11:34:52.388Z,20.60
2019-02-17T11:35:52.428Z,20.46
2019-02-17T11:36:52.462Z,20.88
2019-02-17T11:37:52.500Z,20.61
2019-02-17T11:38:52.533Z,20.90
2019-02-17T11:39:52.578Z,21.06
2019-02-17T11:40:52.609Z,20.76
2019-02-17T11:41:52.643Z,20.83
2019-02-17T11:42:52.683Z,21.61
2019-02-17T11:43:52.719Z,21.76
2019-02-17T11:44:52.758Z,21.27
2019-02-17T11:45:52.792Z,21.64
2019-02-17T11:46:52.835Z,21.16
2019-02-17T11:47:52.864Z,21.21
2019-02-17T11:48:52.904Z,20.91
2019-02-17T11:49:52.940Z,21.13
2019-02-17T11:50:52.976Z,21.25
2019-02-17T11:51:53.012Z,20.67
2019-02-17T11:52:53.052Z,20.35
2019-02-17T11:53:53.093Z,20.71
2019-02-17T11:54:53.124Z,20.94
2019-02-17T11:55:53.160Z,20.83
2019-02-17T11:56:53.200Z,21.04
2019-02-17T11:57:53.236Z,20.57
2019-02-17T11:58:53.271Z,20.63
2019-02-17T11:59:53.308Z,21.13
2019-02-17T12:00:53.344Z,21.21
2019-02-17T12:01:53.381Z,21.18
2019-02-17T12:02:53.418Z,21.21
2019-02-17T12:03:53.456Z,20.94
2019-02-17T12:04:53.493Z,20.78
2019-02-17T12:05:53.532Z,20.90
2019-02-17T12:06:53.565Z,21.38
2019-02-17T12:07:53.600Z,21.52
2019-02-17T12:08:53.637Z,21.52
2019-02-17T12:09:53.676Z,21.46
2019-02-17T12:10:53.720Z,21.99
2019-02-17T12:11:53.747Z,22.11
2019-02-17T12:12:53.785Z,22.30
2019-02-17T12:13:53.819Z,22.57
2019-02-17T12:14:53.859Z,22.81
2019-02-17T12:15:53.892Z,23.03
2019-02-17T12:16:53.929Z,23.15
2019-02-17T12:17:53.982Z,22.94
2019-02-17T12:18:54.008Z,23.10
2019-02-17T12:19:54.040Z,22.67
2019-02-17T12:20:54.085Z,22.41
2019-02-17T12:21:54.112Z,22.57
2019-02-17T12:22:54.148Z,22.64
2019-02-17T12:23:54.184Z,22.11
2019-02-17T12:24:54.221Z,21.68
2019-02-17T12:25:54.257Z,21.48
2019-02-17T12:26:54.295Z,21.86
2019-02-17T12:27:54.332Z,21.82
2019-02-17T12:28:54.373Z,21.62
2019-02-17T12:29:54.418Z,21.64
2019-02-17T12:30:54.454Z,21.83
2019-02-17T12:31:54.476Z,22.09
2019-02-17T12:32:54.515Z,21.97
2019-02-17T12:33:54.555Z,21.59
2019-02-17T12:34:54.586Z,21.34
2019-02-17T12:35:54.623Z,21.59
2019-02-17T12:36:54.659Z,22.11
2019-02-17T12:37:54.702Z,22.63
2019-02-17T12:38:54.736Z,22.92
2019-02-17T12:39:54.771Z,23.24
2019-02-17T12:40:54.804Z,23.14
2019-02-17T12:41:54.841Z,22.96
2019-02-17T12:42:54.879Z,23.09
2019-02-17T12:43:54.913Z,23.10
2019-02-17T12:44:57.057Z,23.00
2019-02-17T12:45:54.998Z,23.19
2019-02-17T12:46:55.022Z,23.28
2019-02-17T12:47:57.840Z,23.01
2019-02-17T12:48:55.094Z,23.03
2019-02-17T12:49:55.128Z,22.81
2019-02-17T12:50:55.166Z,22.78
2019-02-17T12:51:55.209Z,23.15
2019-02-17T12:52:55.239Z,22.75
2019-02-17T12:53:55.282Z,22.15
2019-02-17T12:54:55.308Z,22.27
2019-02-17T12:55:55.345Z,21.89
2019-02-17T12:56:55.385Z,21.94
2019-02-17T12:57:55.418Z,22.39
2019-02-17T12:58:55.453Z,22.64
2019-02-17T12:59:55.490Z,23.12
2019-02-17T13:00:55.524Z,23.25
2019-02-17T13:01:55.565Z,23.28
2019-02-17T13:02:55.604Z,23.16
2019-02-17T13:03:55.633Z,22.75
2019-02-17T13:04:55.670Z,22.18
2019-02-17T13:05:55.706Z,21.92
2019-02-17T13:06:55.741Z,21.86
2019-02-17T13:07:55.774Z,21.99
2019-02-17T13:08:55.813Z,21.73
2019-02-17T13:09:55.846Z,21.64
2019-02-17T13:10:55.881Z,21.66